sensor_id;sensor_type;location;lat;lon;timestamp;temperature;humidity
2487;DHT22;1254;49.144;8.212;2022-12-07T00:01:20;4.60;99.90
2487;DHT22;1254;49.144;8.212;2022-12-07T00:03:50;4.60;99.90
2487;DHT22;1254;49.144;8.212;2022-12-07T00:06:19;4.60;99.90
2487;DHT22;1254;49.144;8.212;2022-12-07T00:08:47;4.60;99.90
2487;DHT22;1254;49.144;8.212;2022-12-07T00:11:17;4.60;99.90
2487;DHT22;1254;49.144;8.212;2022-12-07T00:13:47;4.60;99.90
2487;DHT22;1254;49.144;8.212;2022-12-07T00:16:20;4.70;99.90
2487;DHT22;1254;49.144;8.212;2022-12-07T00:18:48;4.60;99.90
2487;DHT22;1254;49.144;8.212;2022-12-07T00:21:18;4.60;99.90
2487;DHT22;1254;49.144;8.212;2022-12-07T00:23:47;4.70;99.90
2487;DHT22;1254;49.144;8.212;2022-12-07T00:26:17;4.70;99.90
2487;DHT22;1254;49.144;8.212;2022-12-07T00:28:48;4.70;99.90
2487;DHT22;1254;49.144;8.212;2022-12-07T00:31:18;4.70;99.90
2487;DHT22;1254;49.144;8.212;2022-12-07T00:33:46;4.60;99.90
2487;DHT22;1254;49.144;8.212;2022-12-07T00:36:16;4.70;99.90
2487;DHT22;1254;49.144;8.212;2022-12-07T00:38:44;4.60;99.90
2487;DHT22;1254;49.144;8.212;2022-12-07T00:41:14;4.60;99.90
2487;DHT22;1254;49.144;8.212;2022-12-07T00:43:43;4.60;99.90
2487;DHT22;1254;49.144;8.212;2022-12-07T00:46:14;4.50;99.90
2487;DHT22;1254;49.144;8.212;2022-12-07T00:48:42;4.40;99.90
2487;DHT22;1254;49.144;8.212;2022-12-07T00:51:11;4.40;99.90
2487;DHT22;1254;49.144;8.212;2022-12-07T00:53:40;4.40;99.90
2487;DHT22;1254;49.144;8.212;2022-12-07T00:56:10;4.40;99.90
2487;DHT22;1254;49.144;8.212;2022-12-07T00:58:39;4.40;99.90
2487;DHT22;1254;49.144;8.212;2022-12-07T01:01:08;4.40;99.90
2487;DHT22;1254;49.144;8.212;2022-12-07T01:03:38;4.50;99.90
2487;DHT22;1254;49.144;8.212;2022-12-07T01:06:06;4.50;99.90
2487;DHT22;1254;49.144;8.212;2022-12-07T01:08:34;4.40;99.90
2487;DHT22;1254;49.144;8.212;2022-12-07T01:11:04;4.40;99.90
2487;DHT22;1254;49.144;8.212;2022-12-07T01:13:34;4.30;99.90
2487;DHT22;1254;49.144;8.212;2022-12-07T01:16:04;4.30;99.90
2487;DHT22;1254;49.144;8.212;2022-12-07T01:18:35;4.30;99.90
2487;DHT22;1254;49.144;8.212;2022-12-07T01:21:06;4.30;99.90
2487;DHT22;1254;49.144;8.212;2022-12-07T01:23:35;4.20;99.90
2487;DHT22;1254;49.144;8.212;2022-12-07T01:26:05;4.30;99.90
2487;DHT22;1254;49.144;8.212;2022-12-07T01:28:34;4.30;99.90
2487;DHT22;1254;49.144;8.212;2022-12-07T01:31:03;4.20;99.90
2487;DHT22;1254;49.144;8.212;2022-12-07T01:33:33;4.20;99.90
2487;DHT22;1254;49.144;8.212;2022-12-07T01:36:04;4.10;99.90
2487;DHT22;1254;49.144;8.212;2022-12-07T01:38:33;4.10;99.90
2487;DHT22;1254;49.144;8.212;2022-12-07T01:41:01;4.10;99.90
2487;DHT22;1254;49.144;8.212;2022-12-07T01:43:31;4.10;99.90
2487;DHT22;1254;49.144;8.212;2022-12-07T01:46:00;4.10;99.90
2487;DHT22;1254;49.144;8.212;2022-12-07T01:48:31;4.10;99.90
2487;DHT22;1254;49.144;8.212;2022-12-07T01:51:05;4.10;99.90
2487;DHT22;1254;49.144;8.212;2022-12-07T01:53:37;4.00;99.90
2487;DHT22;1254;49.144;8.212;2022-12-07T01:56:08;4.00;99.90
2487;DHT22;1254;49.144;8.212;2022-12-07T01:58:38;4.00;99.90
2487;DHT22;1254;49.144;8.212;2022-12-07T02:01:06;4.00;99.90
2487;DHT22;1254;49.144;8.212;2022-12-07T02:03:37;4.00;99.90
2487;DHT22;1254;49.144;8.212;2022-12-07T02:06:10;4.00;99.90
2487;DHT22;1254;49.144;8.212;2022-12-07T02:08:39;4.00;99.90
2487;DHT22;1254;49.144;8.212;2022-12-07T02:11:08;4.00;99.90
2487;DHT22;1254;49.144;8.212;2022-12-07T02:13:38;4.10;99.90
2487;DHT22;1254;49.144;8.212;2022-12-07T02:16:20;4.10;99.90
2487;DHT22;1254;49.144;8.212;2022-12-07T02:18:59;4.10;99.90
2487;DHT22;1254;49.144;8.212;2022-12-07T02:21:37;4.10;99.90
2487;DHT22;1254;49.144;8.212;2022-12-07T02:24:31;4.20;99.90
2487;DHT22;1254;49.144;8.212;2022-12-07T02:27:16;4.30;99.90
2487;DHT22;1254;49.144;8.212;2022-12-07T02:29:55;4.30;99.90
2487;DHT22;1254;49.144;8.212;2022-12-07T02:32:27;4.30;99.90
2487;DHT22;1254;49.144;8.212;2022-12-07T02:35:01;4.30;99.90
2487;DHT22;1254;49.144;8.212;2022-12-07T02:37:36;4.20;99.90
2487;DHT22;1254;49.144;8.212;2022-12-07T02:40:10;4.20;99.90
2487;DHT22;1254;49.144;8.212;2022-12-07T02:42:43;4.20;99.90
2487;DHT22;1254;49.144;8.212;2022-12-07T02:45:15;4.30;99.90
2487;DHT22;1254;49.144;8.212;2022-12-07T02:47:46;4.30;99.90
2487;DHT22;1254;49.144;8.212;2022-12-07T02:50:14;4.20;99.90
2487;DHT22;1254;49.144;8.212;2022-12-07T02:52:44;4.20;99.90
2487;DHT22;1254;49.144;8.212;2022-12-07T02:55:13;4.10;99.90
2487;DHT22;1254;49.144;8.212;2022-12-07T02:57:53;4.00;99.90
2487;DHT22;1254;49.144;8.212;2022-12-07T03:00:23;4.10;99.90
2487;DHT22;1254;49.144;8.212;2022-12-07T03:02:54;4.00;99.90
2487;DHT22;1254;49.144;8.212;2022-12-07T03:05:38;4.00;99.90
2487;DHT22;1254;49.144;8.212;2022-12-07T03:08:13;4.00;99.90
2487;DHT22;1254;49.144;8.212;2022-12-07T03:10:48;4.10;99.90
2487;DHT22;1254;49.144;8.212;2022-12-07T03:13:23;4.00;99.90
2487;DHT22;1254;49.144;8.212;2022-12-07T03:15:58;4.00;99.90
2487;DHT22;1254;49.144;8.212;2022-12-07T03:18:32;4.00;99.90
2487;DHT22;1254;49.144;8.212;2022-12-07T03:21:05;4.00;99.90
2487;DHT22;1254;49.144;8.212;2022-12-07T03:23:35;4.00;99.90
2487;DHT22;1254;49.144;8.212;2022-12-07T03:26:08;4.00;99.90
2487;DHT22;1254;49.144;8.212;2022-12-07T03:28:44;4.00;99.90
2487;DHT22;1254;49.144;8.212;2022-12-07T03:31:17;4.10;99.90
2487;DHT22;1254;49.144;8.212;2022-12-07T03:33:51;4.10;99.90
2487;DHT22;1254;49.144;8.212;2022-12-07T03:36:22;4.10;99.90
2487;DHT22;1254;49.144;8.212;2022-12-07T03:38:54;4.10;99.90
2487;DHT22;1254;49.144;8.212;2022-12-07T03:41:26;4.10;99.90
2487;DHT22;1254;49.144;8.212;2022-12-07T03:43:55;4.10;99.90
2487;DHT22;1254;49.144;8.212;2022-12-07T03:46:34;4.00;99.90
2487;DHT22;1254;49.144;8.212;2022-12-07T03:49:08;4.00;99.90
2487;DHT22;1254;49.144;8.212;2022-12-07T03:51:42;4.00;99.90
2487;DHT22;1254;49.144;8.212;2022-12-07T03:54:14;4.00;99.90
2487;DHT22;1254;49.144;8.212;2022-12-07T03:56:46;4.00;99.90
2487;DHT22;1254;49.144;8.212;2022-12-07T03:59:15;4.10;99.90
2487;DHT22;1254;49.144;8.212;2022-12-07T04:01:52;4.10;99.90
2487;DHT22;1254;49.144;8.212;2022-12-07T04:04:20;4.10;99.90
2487;DHT22;1254;49.144;8.212;2022-12-07T04:06:49;4.10;99.90
2487;DHT22;1254;49.144;8.212;2022-12-07T04:09:17;4.00;99.90
2487;DHT22;1254;49.144;8.212;2022-12-07T04:11:45;4.00;99.90
2487;DHT22;1254;49.144;8.212;2022-12-07T04:14:13;4.00;99.90
2487;DHT22;1254;49.144;8.212;2022-12-07T04:16:50;4.00;99.90
2487;DHT22;1254;49.144;8.212;2022-12-07T04:19:20;4.00;99.90
2487;DHT22;1254;49.144;8.212;2022-12-07T04:21:48;4.00;99.90
2487;DHT22;1254;49.144;8.212;2022-12-07T04:24:16;4.00;99.90
2487;DHT22;1254;49.144;8.212;2022-12-07T04:26:45;4.00;99.90
2487;DHT22;1254;49.144;8.212;2022-12-07T04:29:13;4.00;99.90
2487;DHT22;1254;49.144;8.212;2022-12-07T04:31:41;4.00;99.90
2487;DHT22;1254;49.144;8.212;2022-12-07T04:34:11;4.10;99.90
2487;DHT22;1254;49.144;8.212;2022-12-07T04:36:40;4.10;99.90
2487;DHT22;1254;49.144;8.212;2022-12-07T04:39:17;4.10;99.90
2487;DHT22;1254;49.144;8.212;2022-12-07T04:41:45;4.10;99.90
2487;DHT22;1254;49.144;8.212;2022-12-07T04:44:14;4.10;99.90
2487;DHT22;1254;49.144;8.212;2022-12-07T04:46:42;4.10;99.90
2487;DHT22;1254;49.144;8.212;2022-12-07T04:49:12;4.10;99.90
2487;DHT22;1254;49.144;8.212;2022-12-07T04:51:41;4.20;99.90
2487;DHT22;1254;49.144;8.212;2022-12-07T04:54:09;4.20;99.90
2487;DHT22;1254;49.144;8.212;2022-12-07T04:56:37;4.10;99.90
2487;DHT22;1254;49.144;8.212;2022-12-07T04:59:05;4.10;99.90
2487;DHT22;1254;49.144;8.212;2022-12-07T05:01:33;4.00;99.90
2487;DHT22;1254;49.144;8.212;2022-12-07T05:04:02;4.00;99.90
2487;DHT22;1254;49.144;8.212;2022-12-07T05:06:31;4.00;99.90
2487;DHT22;1254;49.144;8.212;2022-12-07T05:08:59;4.00;99.90
2487;DHT22;1254;49.144;8.212;2022-12-07T05:11:27;4.00;99.90
2487;DHT22;1254;49.144;8.212;2022-12-07T05:14:11;4.00;99.90
2487;DHT22;1254;49.144;8.212;2022-12-07T05:16:40;4.00;99.90
2487;DHT22;1254;49.144;8.212;2022-12-07T05:19:09;4.00;99.90
2487;DHT22;1254;49.144;8.212;2022-12-07T05:21:39;4.00;99.90
2487;DHT22;1254;49.144;8.212;2022-12-07T05:24:08;4.00;99.90
2487;DHT22;1254;49.144;8.212;2022-12-07T05:26:37;4.00;99.90
2487;DHT22;1254;49.144;8.212;2022-12-07T05:29:05;4.00;99.90
2487;DHT22;1254;49.144;8.212;2022-12-07T05:31:33;3.90;99.90
2487;DHT22;1254;49.144;8.212;2022-12-07T05:34:01;3.80;99.90
2487;DHT22;1254;49.144;8.212;2022-12-07T05:36:29;3.80;99.90
2487;DHT22;1254;49.144;8.212;2022-12-07T05:38:59;3.80;99.90
2487;DHT22;1254;49.144;8.212;2022-12-07T05:41:27;3.80;99.90
2487;DHT22;1254;49.144;8.212;2022-12-07T05:44:13;3.80;99.90
2487;DHT22;1254;49.144;8.212;2022-12-07T05:46:41;3.90;99.90
2487;DHT22;1254;49.144;8.212;2022-12-07T05:49:09;3.90;99.90
2487;DHT22;1254;49.144;8.212;2022-12-07T05:51:37;4.00;99.90
2487;DHT22;1254;49.144;8.212;2022-12-07T05:54:06;4.00;99.90
2487;DHT22;1254;49.144;8.212;2022-12-07T05:56:34;4.00;99.90
2487;DHT22;1254;49.144;8.212;2022-12-07T05:59:02;4.10;99.90
2487;DHT22;1254;49.144;8.212;2022-12-07T06:01:48;4.10;99.90
2487;DHT22;1254;49.144;8.212;2022-12-07T06:04:16;4.00;99.90
2487;DHT22;1254;49.144;8.212;2022-12-07T06:06:44;3.90;99.90
2487;DHT22;1254;49.144;8.212;2022-12-07T06:09:13;3.90;99.90
2487;DHT22;1254;49.144;8.212;2022-12-07T06:11:42;3.80;99.90
2487;DHT22;1254;49.144;8.212;2022-12-07T06:14:27;3.80;99.90
2487;DHT22;1254;49.144;8.212;2022-12-07T06:16:55;3.80;99.90
2487;DHT22;1254;49.144;8.212;2022-12-07T06:19:22;3.80;99.90
2487;DHT22;1254;49.144;8.212;2022-12-07T06:21:51;3.80;99.90
2487;DHT22;1254;49.144;8.212;2022-12-07T06:24:20;3.80;99.90
2487;DHT22;1254;49.144;8.212;2022-12-07T06:26:49;3.80;99.90
2487;DHT22;1254;49.144;8.212;2022-12-07T06:29:17;3.80;99.90
2487;DHT22;1254;49.144;8.212;2022-12-07T06:31:45;3.80;99.90
2487;DHT22;1254;49.144;8.212;2022-12-07T06:34:15;3.90;99.90
2487;DHT22;1254;49.144;8.212;2022-12-07T06:36:43;3.80;99.90
2487;DHT22;1254;49.144;8.212;2022-12-07T06:39:12;3.90;99.90
2487;DHT22;1254;49.144;8.212;2022-12-07T06:41:41;3.90;99.90
2487;DHT22;1254;49.144;8.212;2022-12-07T06:44:09;3.90;99.90
2487;DHT22;1254;49.144;8.212;2022-12-07T06:46:37;3.90;99.90
2487;DHT22;1254;49.144;8.212;2022-12-07T06:49:05;3.90;99.90
2487;DHT22;1254;49.144;8.212;2022-12-07T06:51:34;3.90;99.90
2487;DHT22;1254;49.144;8.212;2022-12-07T06:54:03;4.00;99.90
2487;DHT22;1254;49.144;8.212;2022-12-07T06:56:31;3.90;99.90
2487;DHT22;1254;49.144;8.212;2022-12-07T06:59:00;3.90;99.90
2487;DHT22;1254;49.144;8.212;2022-12-07T07:01:29;3.90;99.90
2487;DHT22;1254;49.144;8.212;2022-12-07T07:03:57;3.90;99.90
2487;DHT22;1254;49.144;8.212;2022-12-07T07:06:25;3.90;99.90
2487;DHT22;1254;49.144;8.212;2022-12-07T07:08:53;3.90;99.90
2487;DHT22;1254;49.144;8.212;2022-12-07T07:11:21;3.90;99.90
2487;DHT22;1254;49.144;8.212;2022-12-07T07:13:49;3.80;99.90
2487;DHT22;1254;49.144;8.212;2022-12-07T07:16:18;3.70;99.90
2487;DHT22;1254;49.144;8.212;2022-12-07T07:18:46;3.70;99.90
2487;DHT22;1254;49.144;8.212;2022-12-07T07:21:14;3.70;99.90
2487;DHT22;1254;49.144;8.212;2022-12-07T07:23:42;3.70;99.90
2487;DHT22;1254;49.144;8.212;2022-12-07T07:26:10;3.80;99.90
2487;DHT22;1254;49.144;8.212;2022-12-07T07:28:38;3.70;99.90
2487;DHT22;1254;49.144;8.212;2022-12-07T07:31:06;3.70;99.90
2487;DHT22;1254;49.144;8.212;2022-12-07T07:33:35;3.70;99.90
2487;DHT22;1254;49.144;8.212;2022-12-07T07:36:04;3.70;99.90
2487;DHT22;1254;49.144;8.212;2022-12-07T07:38:32;3.60;99.90
2487;DHT22;1254;49.144;8.212;2022-12-07T07:41:00;3.60;99.90
2487;DHT22;1254;49.144;8.212;2022-12-07T07:43:28;3.60;99.90
2487;DHT22;1254;49.144;8.212;2022-12-07T07:45:56;3.60;99.90
2487;DHT22;1254;49.144;8.212;2022-12-07T07:48:24;3.70;99.90
2487;DHT22;1254;49.144;8.212;2022-12-07T07:50:54;3.60;99.90
2487;DHT22;1254;49.144;8.212;2022-12-07T07:53:21;3.50;99.90
2487;DHT22;1254;49.144;8.212;2022-12-07T07:55:52;3.50;99.90
2487;DHT22;1254;49.144;8.212;2022-12-07T07:58:21;3.50;99.90
2487;DHT22;1254;49.144;8.212;2022-12-07T08:00:49;3.50;99.90
2487;DHT22;1254;49.144;8.212;2022-12-07T08:03:17;3.50;99.90
2487;DHT22;1254;49.144;8.212;2022-12-07T08:05:45;3.60;99.90
2487;DHT22;1254;49.144;8.212;2022-12-07T08:08:14;3.60;99.90
2487;DHT22;1254;49.144;8.212;2022-12-07T08:10:42;3.60;99.90
2487;DHT22;1254;49.144;8.212;2022-12-07T08:13:10;3.60;99.90
2487;DHT22;1254;49.144;8.212;2022-12-07T08:15:41;3.60;99.90
2487;DHT22;1254;49.144;8.212;2022-12-07T08:18:09;3.50;99.90
2487;DHT22;1254;49.144;8.212;2022-12-07T08:20:38;3.50;99.90
2487;DHT22;1254;49.144;8.212;2022-12-07T08:23:07;3.50;99.90
2487;DHT22;1254;49.144;8.212;2022-12-07T08:25:37;3.40;99.90
2487;DHT22;1254;49.144;8.212;2022-12-07T08:28:05;3.40;99.90
2487;DHT22;1254;49.144;8.212;2022-12-07T08:30:33;3.40;99.90
2487;DHT22;1254;49.144;8.212;2022-12-07T08:33:01;3.50;99.90
2487;DHT22;1254;49.144;8.212;2022-12-07T08:35:29;3.50;99.90
2487;DHT22;1254;49.144;8.212;2022-12-07T08:37:57;3.60;99.90
2487;DHT22;1254;49.144;8.212;2022-12-07T08:40:25;3.70;99.90
2487;DHT22;1254;49.144;8.212;2022-12-07T08:42:54;3.80;99.90
2487;DHT22;1254;49.144;8.212;2022-12-07T08:45:22;3.90;99.90
2487;DHT22;1254;49.144;8.212;2022-12-07T08:47:55;4.00;99.90
2487;DHT22;1254;49.144;8.212;2022-12-07T08:50:25;4.00;99.90
2487;DHT22;1254;49.144;8.212;2022-12-07T08:52:54;3.90;99.90
2487;DHT22;1254;49.144;8.212;2022-12-07T08:55:24;3.90;99.90
2487;DHT22;1254;49.144;8.212;2022-12-07T08:57:53;4.00;99.90
2487;DHT22;1254;49.144;8.212;2022-12-07T09:00:22;4.00;99.90
2487;DHT22;1254;49.144;8.212;2022-12-07T09:02:50;4.00;99.90
2487;DHT22;1254;49.144;8.212;2022-12-07T09:05:18;4.10;99.90
2487;DHT22;1254;49.144;8.212;2022-12-07T09:07:49;4.10;99.90
2487;DHT22;1254;49.144;8.212;2022-12-07T09:10:18;4.20;99.90
2487;DHT22;1254;49.144;8.212;2022-12-07T09:12:46;4.30;99.90
2487;DHT22;1254;49.144;8.212;2022-12-07T09:15:15;4.30;99.90
2487;DHT22;1254;49.144;8.212;2022-12-07T09:17:43;4.40;99.90
2487;DHT22;1254;49.144;8.212;2022-12-07T09:20:12;4.40;99.90
2487;DHT22;1254;49.144;8.212;2022-12-07T09:22:40;4.40;99.90
2487;DHT22;1254;49.144;8.212;2022-12-07T09:25:08;4.40;99.90
2487;DHT22;1254;49.144;8.212;2022-12-07T09:27:36;4.40;99.90
2487;DHT22;1254;49.144;8.212;2022-12-07T09:30:06;4.50;99.90
2487;DHT22;1254;49.144;8.212;2022-12-07T09:32:35;4.40;99.90
2487;DHT22;1254;49.144;8.212;2022-12-07T09:35:03;4.40;99.90
2487;DHT22;1254;49.144;8.212;2022-12-07T09:37:32;4.40;99.90
2487;DHT22;1254;49.144;8.212;2022-12-07T09:40:04;4.60;99.90
2487;DHT22;1254;49.144;8.212;2022-12-07T09:42:34;4.60;99.90
2487;DHT22;1254;49.144;8.212;2022-12-07T09:45:05;4.60;99.90
2487;DHT22;1254;49.144;8.212;2022-12-07T09:47:35;4.60;99.90
2487;DHT22;1254;49.144;8.212;2022-12-07T09:50:05;4.60;99.90
2487;DHT22;1254;49.144;8.212;2022-12-07T09:52:34;4.60;99.90
2487;DHT22;1254;49.144;8.212;2022-12-07T09:55:03;4.70;99.90
2487;DHT22;1254;49.144;8.212;2022-12-07T09:57:32;4.70;99.90
2487;DHT22;1254;49.144;8.212;2022-12-07T10:00:04;4.80;99.90
2487;DHT22;1254;49.144;8.212;2022-12-07T10:02:38;4.80;99.90
2487;DHT22;1254;49.144;8.212;2022-12-07T10:05:13;4.80;99.90
2487;DHT22;1254;49.144;8.212;2022-12-07T10:07:41;4.80;99.90
2487;DHT22;1254;49.144;8.212;2022-12-07T10:10:15;4.90;99.90
2487;DHT22;1254;49.144;8.212;2022-12-07T10:12:56;4.90;99.90
2487;DHT22;1254;49.144;8.212;2022-12-07T10:15:42;4.90;99.90
2487;DHT22;1254;49.144;8.212;2022-12-07T10:18:21;4.90;99.90
2487;DHT22;1254;49.144;8.212;2022-12-07T10:21:05;4.90;99.90
2487;DHT22;1254;49.144;8.212;2022-12-07T10:23:36;4.80;99.90
2487;DHT22;1254;49.144;8.212;2022-12-07T10:26:26;4.80;99.90
2487;DHT22;1254;49.144;8.212;2022-12-07T10:28:55;4.60;99.90
2487;DHT22;1254;49.144;8.212;2022-12-07T10:31:24;4.70;99.90
2487;DHT22;1254;49.144;8.212;2022-12-07T10:33:54;4.70;99.90
2487;DHT22;1254;49.144;8.212;2022-12-07T10:36:25;4.80;99.90
2487;DHT22;1254;49.144;8.212;2022-12-07T10:38:59;4.80;99.90
2487;DHT22;1254;49.144;8.212;2022-12-07T10:41:28;4.80;99.90
2487;DHT22;1254;49.144;8.212;2022-12-07T10:43:57;4.80;99.90
2487;DHT22;1254;49.144;8.212;2022-12-07T10:47:01;4.80;99.90
2487;DHT22;1254;49.144;8.212;2022-12-07T10:50:10;4.90;99.90
2487;DHT22;1254;49.144;8.212;2022-12-07T10:52:51;5.00;99.90
2487;DHT22;1254;49.144;8.212;2022-12-07T10:55:28;5.10;99.90
2487;DHT22;1254;49.144;8.212;2022-12-07T10:58:21;5.00;99.90
2487;DHT22;1254;49.144;8.212;2022-12-07T11:00:57;5.10;99.90
2487;DHT22;1254;49.144;8.212;2022-12-07T11:03:45;5.10;99.90
2487;DHT22;1254;49.144;8.212;2022-12-07T11:06:24;5.10;99.90
2487;DHT22;1254;49.144;8.212;2022-12-07T11:11:47;5.20;99.90
2487;DHT22;1254;49.144;8.212;2022-12-07T11:14:24;5.30;99.90
2487;DHT22;1254;49.144;8.212;2022-12-07T11:16:56;5.30;99.90
2487;DHT22;1254;49.144;8.212;2022-12-07T11:19:35;5.30;99.90
2487;DHT22;1254;49.144;8.212;2022-12-07T11:22:14;5.50;99.90
2487;DHT22;1254;49.144;8.212;2022-12-07T11:24:51;5.50;99.90
2487;DHT22;1254;49.144;8.212;2022-12-07T11:27:26;5.60;99.90
2487;DHT22;1254;49.144;8.212;2022-12-07T11:30:07;5.70;99.90
2487;DHT22;1254;49.144;8.212;2022-12-07T11:32:59;5.90;99.90
2487;DHT22;1254;49.144;8.212;2022-12-07T11:35:36;5.90;99.90
2487;DHT22;1254;49.144;8.212;2022-12-07T11:38:14;6.00;99.90
2487;DHT22;1254;49.144;8.212;2022-12-07T11:40:45;5.90;99.90
2487;DHT22;1254;49.144;8.212;2022-12-07T11:43:20;5.80;99.90
2487;DHT22;1254;49.144;8.212;2022-12-07T11:45:55;5.80;99.90
2487;DHT22;1254;49.144;8.212;2022-12-07T11:48:33;5.90;99.90
2487;DHT22;1254;49.144;8.212;2022-12-07T11:51:02;5.90;99.90
2487;DHT22;1254;49.144;8.212;2022-12-07T11:53:36;6.00;99.90
2487;DHT22;1254;49.144;8.212;2022-12-07T11:56:09;6.20;99.90
2487;DHT22;1254;49.144;8.212;2022-12-07T11:58:47;6.00;99.90
2487;DHT22;1254;49.144;8.212;2022-12-07T12:01:26;6.10;99.90
2487;DHT22;1254;49.144;8.212;2022-12-07T12:04:02;6.20;99.90
2487;DHT22;1254;49.144;8.212;2022-12-07T12:06:34;6.40;99.90
2487;DHT22;1254;49.144;8.212;2022-12-07T12:09:12;6.50;99.90
2487;DHT22;1254;49.144;8.212;2022-12-07T12:12:00;6.60;99.90
2487;DHT22;1254;49.144;8.212;2022-12-07T12:14:41;6.60;99.90
2487;DHT22;1254;49.144;8.212;2022-12-07T12:17:26;6.90;99.90
2487;DHT22;1254;49.144;8.212;2022-12-07T12:20:04;6.80;99.90
2487;DHT22;1254;49.144;8.212;2022-12-07T12:22:36;6.70;99.90
2487;DHT22;1254;49.144;8.212;2022-12-07T12:25:16;6.80;99.90
2487;DHT22;1254;49.144;8.212;2022-12-07T12:27:47;6.50;99.90
2487;DHT22;1254;49.144;8.212;2022-12-07T12:30:33;6.50;99.90
2487;DHT22;1254;49.144;8.212;2022-12-07T12:33:03;6.40;99.90
2487;DHT22;1254;49.144;8.212;2022-12-07T12:35:33;6.30;99.90
2487;DHT22;1254;49.144;8.212;2022-12-07T12:38:27;6.40;99.90
2487;DHT22;1254;49.144;8.212;2022-12-07T12:40:58;6.50;99.90
2487;DHT22;1254;49.144;8.212;2022-12-07T12:43:51;6.50;99.90
2487;DHT22;1254;49.144;8.212;2022-12-07T12:46:49;6.30;99.90
2487;DHT22;1254;49.144;8.212;2022-12-07T12:49:36;6.20;99.90
2487;DHT22;1254;49.144;8.212;2022-12-07T12:55:22;6.20;99.90
2487;DHT22;1254;49.144;8.212;2022-12-07T13:04:38;6.30;99.90
2487;DHT22;1254;49.144;8.212;2022-12-07T13:10:42;6.50;99.90
2487;DHT22;1254;49.144;8.212;2022-12-07T13:13:32;6.40;99.90
2487;DHT22;1254;49.144;8.212;2022-12-07T13:16:38;6.20;99.90
2487;DHT22;1254;49.144;8.212;2022-12-07T13:22:53;6.30;99.90
2487;DHT22;1254;49.144;8.212;2022-12-07T13:25:41;6.30;99.90
2487;DHT22;1254;49.144;8.212;2022-12-07T13:28:16;6.30;99.90
2487;DHT22;1254;49.144;8.212;2022-12-07T13:30:50;6.40;99.90
2487;DHT22;1254;49.144;8.212;2022-12-07T13:33:21;6.40;99.90
2487;DHT22;1254;49.144;8.212;2022-12-07T13:35:53;6.30;99.90
2487;DHT22;1254;49.144;8.212;2022-12-07T13:38:28;6.10;99.90
2487;DHT22;1254;49.144;8.212;2022-12-07T13:41:02;6.00;99.90
2487;DHT22;1254;49.144;8.212;2022-12-07T13:43:31;6.00;99.90
2487;DHT22;1254;49.144;8.212;2022-12-07T13:45:59;6.00;99.90
2487;DHT22;1254;49.144;8.212;2022-12-07T13:48:31;5.90;99.90
2487;DHT22;1254;49.144;8.212;2022-12-07T13:51:01;5.80;99.90
2487;DHT22;1254;49.144;8.212;2022-12-07T13:53:31;5.70;99.90
2487;DHT22;1254;49.144;8.212;2022-12-07T13:56:00;5.80;99.90
2487;DHT22;1254;49.144;8.212;2022-12-07T13:58:30;5.80;99.90
2487;DHT22;1254;49.144;8.212;2022-12-07T14:00:59;5.80;99.90
2487;DHT22;1254;49.144;8.212;2022-12-07T14:03:30;5.70;99.90
2487;DHT22;1254;49.144;8.212;2022-12-07T14:06:17;5.70;99.90
2487;DHT22;1254;49.144;8.212;2022-12-07T14:08:47;5.70;99.90
2487;DHT22;1254;49.144;8.212;2022-12-07T14:11:17;5.60;99.90
2487;DHT22;1254;49.144;8.212;2022-12-07T14:13:56;5.60;99.90
2487;DHT22;1254;49.144;8.212;2022-12-07T14:16:27;5.60;99.90
2487;DHT22;1254;49.144;8.212;2022-12-07T14:18:56;5.60;99.90
2487;DHT22;1254;49.144;8.212;2022-12-07T14:21:26;5.60;99.90
2487;DHT22;1254;49.144;8.212;2022-12-07T14:24:23;5.60;99.90
2487;DHT22;1254;49.144;8.212;2022-12-07T14:26:51;5.60;99.90
2487;DHT22;1254;49.144;8.212;2022-12-07T14:29:29;5.70;99.90
2487;DHT22;1254;49.144;8.212;2022-12-07T14:32:04;5.70;99.90
2487;DHT22;1254;49.144;8.212;2022-12-07T14:34:41;5.70;99.90
2487;DHT22;1254;49.144;8.212;2022-12-07T14:37:09;5.60;99.90
2487;DHT22;1254;49.144;8.212;2022-12-07T14:39:39;5.60;99.90
2487;DHT22;1254;49.144;8.212;2022-12-07T14:42:07;5.60;99.90
2487;DHT22;1254;49.144;8.212;2022-12-07T14:44:35;5.60;99.90
2487;DHT22;1254;49.144;8.212;2022-12-07T14:47:03;5.60;99.90
2487;DHT22;1254;49.144;8.212;2022-12-07T14:49:31;5.60;99.90
2487;DHT22;1254;49.144;8.212;2022-12-07T14:51:59;5.60;99.90
2487;DHT22;1254;49.144;8.212;2022-12-07T14:54:30;5.50;99.90
2487;DHT22;1254;49.144;8.212;2022-12-07T14:57:00;5.50;99.90
2487;DHT22;1254;49.144;8.212;2022-12-07T14:59:28;5.40;99.90
2487;DHT22;1254;49.144;8.212;2022-12-07T15:01:56;5.40;99.90
2487;DHT22;1254;49.144;8.212;2022-12-07T15:04:24;5.40;99.90
2487;DHT22;1254;49.144;8.212;2022-12-07T15:06:56;5.30;99.90
2487;DHT22;1254;49.144;8.212;2022-12-07T15:09:24;5.30;99.90
2487;DHT22;1254;49.144;8.212;2022-12-07T15:11:52;5.20;99.90
2487;DHT22;1254;49.144;8.212;2022-12-07T15:14:21;5.20;99.90
2487;DHT22;1254;49.144;8.212;2022-12-07T15:16:49;5.20;99.90
2487;DHT22;1254;49.144;8.212;2022-12-07T15:19:18;5.20;99.90
2487;DHT22;1254;49.144;8.212;2022-12-07T15:21:49;5.20;99.90
2487;DHT22;1254;49.144;8.212;2022-12-07T15:24:17;5.20;99.90
2487;DHT22;1254;49.144;8.212;2022-12-07T15:26:45;5.20;99.90
2487;DHT22;1254;49.144;8.212;2022-12-07T15:29:13;5.10;99.90
2487;DHT22;1254;49.144;8.212;2022-12-07T15:31:44;5.10;99.90
2487;DHT22;1254;49.144;8.212;2022-12-07T15:34:12;5.10;99.90
2487;DHT22;1254;49.144;8.212;2022-12-07T15:36:40;5.10;99.90
2487;DHT22;1254;49.144;8.212;2022-12-07T15:39:08;5.00;99.90
2487;DHT22;1254;49.144;8.212;2022-12-07T15:41:36;5.00;99.90
2487;DHT22;1254;49.144;8.212;2022-12-07T15:44:04;5.00;99.90
2487;DHT22;1254;49.144;8.212;2022-12-07T15:46:51;4.90;99.90
2487;DHT22;1254;49.144;8.212;2022-12-07T15:49:19;4.80;99.90
2487;DHT22;1254;49.144;8.212;2022-12-07T15:51:47;4.70;99.90
2487;DHT22;1254;49.144;8.212;2022-12-07T15:54:20;4.80;99.90
2487;DHT22;1254;49.144;8.212;2022-12-07T15:56:48;4.70;99.90
2487;DHT22;1254;49.144;8.212;2022-12-07T15:59:16;4.60;99.90
2487;DHT22;1254;49.144;8.212;2022-12-07T16:01:44;4.70;99.90
2487;DHT22;1254;49.144;8.212;2022-12-07T16:04:13;4.60;99.90
2487;DHT22;1254;49.144;8.212;2022-12-07T16:06:41;4.60;99.90
2487;DHT22;1254;49.144;8.212;2022-12-07T16:09:09;4.50;99.90
2487;DHT22;1254;49.144;8.212;2022-12-07T16:11:37;4.50;99.90
2487;DHT22;1254;49.144;8.212;2022-12-07T16:14:05;4.50;99.90
2487;DHT22;1254;49.144;8.212;2022-12-07T16:16:33;4.50;99.90
2487;DHT22;1254;49.144;8.212;2022-12-07T16:19:01;4.40;99.90
2487;DHT22;1254;49.144;8.212;2022-12-07T16:21:30;4.30;99.90
2487;DHT22;1254;49.144;8.212;2022-12-07T16:23:58;4.30;99.90
2487;DHT22;1254;49.144;8.212;2022-12-07T16:26:26;4.30;99.90
2487;DHT22;1254;49.144;8.212;2022-12-07T16:28:54;4.20;99.90
2487;DHT22;1254;49.144;8.212;2022-12-07T16:31:25;4.20;99.90
2487;DHT22;1254;49.144;8.212;2022-12-07T16:33:55;4.20;99.90
2487;DHT22;1254;49.144;8.212;2022-12-07T16:36:23;4.20;99.90
2487;DHT22;1254;49.144;8.212;2022-12-07T16:38:55;4.20;99.90
2487;DHT22;1254;49.144;8.212;2022-12-07T16:41:23;4.20;99.90
2487;DHT22;1254;49.144;8.212;2022-12-07T16:43:51;4.10;99.90
2487;DHT22;1254;49.144;8.212;2022-12-07T16:46:19;4.20;99.90
2487;DHT22;1254;49.144;8.212;2022-12-07T16:48:47;4.20;99.90
2487;DHT22;1254;49.144;8.212;2022-12-07T16:51:16;4.20;99.90
2487;DHT22;1254;49.144;8.212;2022-12-07T16:53:44;4.10;99.90
2487;DHT22;1254;49.144;8.212;2022-12-07T16:56:14;4.10;99.90
2487;DHT22;1254;49.144;8.212;2022-12-07T16:58:43;4.10;99.90
2487;DHT22;1254;49.144;8.212;2022-12-07T17:01:18;4.00;99.90
2487;DHT22;1254;49.144;8.212;2022-12-07T17:03:46;4.00;99.90
2487;DHT22;1254;49.144;8.212;2022-12-07T17:06:16;3.90;99.90